Terminal Aerodrome Forecast
Issued by NWS

Home | Current Version | Previous Version | Text Only | Print | Product List | Glossary On
Versions: 1 2 3 4 5 6 7 8 9 10 11 12 13 14 15 16 17 18 19 20 21 22 23 24
017
FTUS46 KSEW 292328
TAFPAE
TAF
KPAE 292328Z 3000/3024 17017G28KT P6SM VCSH OVC019
     FM300600 22011KT P6SM VCSH OVC009
     FM301800 24008KT P6SM VCSH OVC022
     FM302300 32006KT P6SM VCSH BKN040=

USA.gov is the U.S. government's official web portal to all federal, state and local government web resources and services.